Terminal Aerodrome Forecast
Issued by NWS Buffalo, NY

Home | Current Version | Previous Version | Text Only | Print | Product List | Glossary On
Versions: 1 2 3 4 5 6 7 8 9 10 11 12 13 14 15 16 17 18 19 20 21 22
000
FTUS41 KBUF 291123
TAFROC
TAF
KROC 291123Z 2912/3012 22006KT P6SM BKN250
     FM291400 VRB03KT P6SM SCT250
     FM291800 VRB03KT P6SM SCT080 SCT250
     FM300400 20005KT P6SM BKN070
     FM300800 23008KT P6SM VCSH BKN060=

USA.gov is the U.S. government's official web portal to all federal, state and local government web resources and services.